Estrella, Colorado
Current Conditions -  °F | °C
As of 5:52 PM on Tuesday 25 Nov 2014 (Local Time) from KALS Reporting Station
Few Clouds Few Clouds  
Wind Chill: 11°   Ceiling: Unl
Heat Index: 21°   Visibility: 10mi
Dew Point:   Wind: 8mph
Humidity: 48%   Direction: 150°SSE
Pressure: 30.18"   Gusts: NA
Location:  37.469°N, 105.836°W
Report Text: KALS 260052Z AUTO 15007KT 10SM FEW065 M06/M16 A3018 RMK AO2 SLP284 T10611156
Loading
Personal Weather Stations






























Interactive Weather Map New forecast layout! Learn more

10-Day Weather Forecast

Advertisements
Track Severe Weather on mobile